sensor_id;sensor_type;location;lat;lon;timestamp;temperature;humidity
40622;DHT22;26324;52.040;11.528;2023-09-18T00:00:48;20.20;69.50
40622;DHT22;26324;52.040;11.528;2023-09-18T00:03:19;20.20;69.80
40622;DHT22;26324;52.040;11.528;2023-09-18T00:05:48;20.20;69.10
40622;DHT22;26324;52.040;11.528;2023-09-18T00:08:16;20.20;69.70
40622;DHT22;26324;52.040;11.528;2023-09-18T00:10:53;20.10;70.00
40622;DHT22;26324;52.040;11.528;2023-09-18T00:13:21;20.10;69.50
40622;DHT22;26324;52.040;11.528;2023-09-18T00:15:49;20.00;69.60
40622;DHT22;26324;52.040;11.528;2023-09-18T00:18:18;20.00;69.90
40622;DHT22;26324;52.040;11.528;2023-09-18T00:20:46;20.00;70.80
40622;DHT22;26324;52.040;11.528;2023-09-18T00:23:15;19.90;70.80
40622;DHT22;26324;52.040;11.528;2023-09-18T00:25:43;19.90;70.70
40622;DHT22;26324;52.040;11.528;2023-09-18T00:28:11;19.80;70.00
40622;DHT22;26324;52.040;11.528;2023-09-18T00:30:42;19.80;69.40
40622;DHT22;26324;52.040;11.528;2023-09-18T00:33:13;19.70;70.40
40622;DHT22;26324;52.040;11.528;2023-09-18T00:35:44;19.70;71.40
40622;DHT22;26324;52.040;11.528;2023-09-18T00:38:12;19.60;71.20
40622;DHT22;26324;52.040;11.528;2023-09-18T00:40:39;19.60;71.70
40622;DHT22;26324;52.040;11.528;2023-09-18T00:43:07;19.60;71.40
40622;DHT22;26324;52.040;11.528;2023-09-18T00:45:38;19.60;71.10
40622;DHT22;26324;52.040;11.528;2023-09-18T00:48:07;19.40;71.00
40622;DHT22;26324;52.040;11.528;2023-09-18T00:50:34;19.20;71.40
40622;DHT22;26324;52.040;11.528;2023-09-18T00:53:03;19.10;72.10
40622;DHT22;26324;52.040;11.528;2023-09-18T00:55:31;19.10;72.60
40622;DHT22;26324;52.040;11.528;2023-09-18T00:57:59;19.00;72.60
40622;DHT22;26324;52.040;11.528;2023-09-18T01:00:27;18.90;72.20
40622;DHT22;26324;52.040;11.528;2023-09-18T01:02:54;18.80;73.00
40622;DHT22;26324;52.040;11.528;2023-09-18T01:05:22;18.70;73.10
40622;DHT22;26324;52.040;11.528;2023-09-18T01:07:49;18.70;74.00
40622;DHT22;26324;52.040;11.528;2023-09-18T01:10:17;18.70;73.80
40622;DHT22;26324;52.040;11.528;2023-09-18T01:12:56;18.60;74.10
40622;DHT22;26324;52.040;11.528;2023-09-18T01:15:34;18.60;74.20
40622;DHT22;26324;52.040;11.528;2023-09-18T01:18:03;18.70;74.60
40622;DHT22;26324;52.040;11.528;2023-09-18T01:20:30;18.70;74.10
40622;DHT22;26324;52.040;11.528;2023-09-18T01:22:58;18.70;74.20
40622;DHT22;26324;52.040;11.528;2023-09-18T01:25:25;18.70;74.20
40622;DHT22;26324;52.040;11.528;2023-09-18T01:27:52;18.70;74.70
40622;DHT22;26324;52.040;11.528;2023-09-18T01:30:20;18.80;74.40
40622;DHT22;26324;52.040;11.528;2023-09-18T01:32:47;18.80;74.00
40622;DHT22;26324;52.040;11.528;2023-09-18T01:35:16;18.80;74.20
40622;DHT22;26324;52.040;11.528;2023-09-18T01:37:45;18.80;74.20
40622;DHT22;26324;52.040;11.528;2023-09-18T01:40:12;18.80;73.90
40622;DHT22;26324;52.040;11.528;2023-09-18T01:42:40;18.70;74.20
40622;DHT22;26324;52.040;11.528;2023-09-18T01:45:08;18.70;74.20
40622;DHT22;26324;52.040;11.528;2023-09-18T01:47:36;18.80;74.30
40622;DHT22;26324;52.040;11.528;2023-09-18T01:50:04;18.70;74.10
40622;DHT22;26324;52.040;11.528;2023-09-18T01:52:35;18.70;74.20
40622;DHT22;26324;52.040;11.528;2023-09-18T01:55:03;18.60;74.70
40622;DHT22;26324;52.040;11.528;2023-09-18T01:57:34;18.60;74.80
40622;DHT22;26324;52.040;11.528;2023-09-18T02:00:02;18.60;74.80
40622;DHT22;26324;52.040;11.528;2023-09-18T02:02:38;18.50;75.00
40622;DHT22;26324;52.040;11.528;2023-09-18T02:05:18;18.50;74.90
40622;DHT22;26324;52.040;11.528;2023-09-18T02:07:46;18.50;75.40
40622;DHT22;26324;52.040;11.528;2023-09-18T02:10:13;18.50;75.10
40622;DHT22;26324;52.040;11.528;2023-09-18T02:12:41;18.40;75.10
40622;DHT22;26324;52.040;11.528;2023-09-18T02:15:08;18.50;75.70
40622;DHT22;26324;52.040;11.528;2023-09-18T02:17:38;18.50;75.20
40622;DHT22;26324;52.040;11.528;2023-09-18T02:20:06;18.50;75.10
40622;DHT22;26324;52.040;11.528;2023-09-18T02:22:39;18.50;75.20
40622;DHT22;26324;52.040;11.528;2023-09-18T02:25:09;18.50;75.00
40622;DHT22;26324;52.040;11.528;2023-09-18T02:27:36;18.50;75.50
40622;DHT22;26324;52.040;11.528;2023-09-18T02:30:04;18.60;75.30
40622;DHT22;26324;52.040;11.528;2023-09-18T02:32:32;18.60;75.30
40622;DHT22;26324;52.040;11.528;2023-09-18T02:35:00;18.50;75.50
40622;DHT22;26324;52.040;11.528;2023-09-18T02:37:28;18.50;75.30
40622;DHT22;26324;52.040;11.528;2023-09-18T02:39:58;18.40;75.20
40622;DHT22;26324;52.040;11.528;2023-09-18T02:42:25;18.40;75.40
40622;DHT22;26324;52.040;11.528;2023-09-18T02:44:53;18.40;75.60
40622;DHT22;26324;52.040;11.528;2023-09-18T02:47:20;18.40;75.50
40622;DHT22;26324;52.040;11.528;2023-09-18T02:49:48;18.30;75.80
40622;DHT22;26324;52.040;11.528;2023-09-18T02:52:15;18.10;76.10
40622;DHT22;26324;52.040;11.528;2023-09-18T02:54:42;18.10;76.40
40622;DHT22;26324;52.040;11.528;2023-09-18T02:57:10;18.10;76.30
40622;DHT22;26324;52.040;11.528;2023-09-18T02:59:37;18.10;76.30
40622;DHT22;26324;52.040;11.528;2023-09-18T03:02:05;18.00;76.90
40622;DHT22;26324;52.040;11.528;2023-09-18T03:04:33;18.00;76.70
40622;DHT22;26324;52.040;11.528;2023-09-18T03:07:01;18.00;76.50
40622;DHT22;26324;52.040;11.528;2023-09-18T03:09:29;17.90;76.40
40622;DHT22;26324;52.040;11.528;2023-09-18T03:11:57;17.90;76.40
40622;DHT22;26324;52.040;11.528;2023-09-18T03:14:25;17.80;76.60
40622;DHT22;26324;52.040;11.528;2023-09-18T03:16:52;17.80;77.00
40622;DHT22;26324;52.040;11.528;2023-09-18T03:19:20;17.70;77.10
40622;DHT22;26324;52.040;11.528;2023-09-18T03:21:50;17.70;77.40
40622;DHT22;26324;52.040;11.528;2023-09-18T03:24:17;17.60;77.50
40622;DHT22;26324;52.040;11.528;2023-09-18T03:26:45;17.60;77.40
40622;DHT22;26324;52.040;11.528;2023-09-18T03:29:12;17.50;77.50
40622;DHT22;26324;52.040;11.528;2023-09-18T03:31:40;17.50;78.00
40622;DHT22;26324;52.040;11.528;2023-09-18T03:34:07;17.50;78.10
40622;DHT22;26324;52.040;11.528;2023-09-18T03:36:35;17.40;78.20
40622;DHT22;26324;52.040;11.528;2023-09-18T03:39:04;17.50;78.10
40622;DHT22;26324;52.040;11.528;2023-09-18T03:41:32;17.40;77.80
40622;DHT22;26324;52.040;11.528;2023-09-18T03:44:02;17.40;78.30
40622;DHT22;26324;52.040;11.528;2023-09-18T03:46:29;17.40;78.50
40622;DHT22;26324;52.040;11.528;2023-09-18T03:48:57;17.40;78.60
40622;DHT22;26324;52.040;11.528;2023-09-18T03:51:25;17.40;78.40
40622;DHT22;26324;52.040;11.528;2023-09-18T03:53:52;17.40;78.60
40622;DHT22;26324;52.040;11.528;2023-09-18T03:56:20;17.30;79.20
40622;DHT22;26324;52.040;11.528;2023-09-18T03:58:48;17.40;79.00
40622;DHT22;26324;52.040;11.528;2023-09-18T04:01:17;17.50;78.90
40622;DHT22;26324;52.040;11.528;2023-09-18T04:03:45;17.50;78.50
40622;DHT22;26324;52.040;11.528;2023-09-18T04:06:13;17.40;78.50
40622;DHT22;26324;52.040;11.528;2023-09-18T04:08:40;17.30;79.00
40622;DHT22;26324;52.040;11.528;2023-09-18T04:11:08;17.30;79.20
40622;DHT22;26324;52.040;11.528;2023-09-18T04:13:36;17.40;79.50
40622;DHT22;26324;52.040;11.528;2023-09-18T04:16:04;17.40;79.50
40622;DHT22;26324;52.040;11.528;2023-09-18T04:18:32;17.40;78.90
40622;DHT22;26324;52.040;11.528;2023-09-18T04:21:00;17.50;79.00
40622;DHT22;26324;52.040;11.528;2023-09-18T04:23:28;17.50;79.00
40622;DHT22;26324;52.040;11.528;2023-09-18T04:25:56;17.50;78.80
40622;DHT22;26324;52.040;11.528;2023-09-18T04:28:25;17.50;78.80
40622;DHT22;26324;52.040;11.528;2023-09-18T04:30:53;17.50;78.80
40622;DHT22;26324;52.040;11.528;2023-09-18T04:33:21;17.40;79.10
40622;DHT22;26324;52.040;11.528;2023-09-18T04:35:49;17.30;79.60
40622;DHT22;26324;52.040;11.528;2023-09-18T04:38:17;17.10;80.20
40622;DHT22;26324;52.040;11.528;2023-09-18T04:40:47;17.10;80.40
40622;DHT22;26324;52.040;11.528;2023-09-18T04:43:14;17.10;80.40
40622;DHT22;26324;52.040;11.528;2023-09-18T04:45:42;17.00;80.40
40622;DHT22;26324;52.040;11.528;2023-09-18T04:48:11;16.90;80.80
40622;DHT22;26324;52.040;11.528;2023-09-18T04:50:38;16.90;80.90
40622;DHT22;26324;52.040;11.528;2023-09-18T04:53:06;17.00;80.80
40622;DHT22;26324;52.040;11.528;2023-09-18T04:55:34;17.10;80.50
40622;DHT22;26324;52.040;11.528;2023-09-18T04:58:02;17.10;80.90
40622;DHT22;26324;52.040;11.528;2023-09-18T05:00:32;17.10;80.40
40622;DHT22;26324;52.040;11.528;2023-09-18T05:03:00;17.10;80.50
40622;DHT22;26324;52.040;11.528;2023-09-18T05:05:30;17.20;80.30
40622;DHT22;26324;52.040;11.528;2023-09-18T05:07:58;17.10;80.10
40622;DHT22;26324;52.040;11.528;2023-09-18T05:10:25;17.20;80.20
40622;DHT22;26324;52.040;11.528;2023-09-18T05:12:53;17.30;80.10
40622;DHT22;26324;52.040;11.528;2023-09-18T05:15:27;17.10;80.30
40622;DHT22;26324;52.040;11.528;2023-09-18T05:17:58;17.10;80.60
40622;DHT22;26324;52.040;11.528;2023-09-18T05:20:31;17.10;80.70
40622;DHT22;26324;52.040;11.528;2023-09-18T05:22:59;17.10;80.90
40622;DHT22;26324;52.040;11.528;2023-09-18T05:25:29;17.10;80.90
40622;DHT22;26324;52.040;11.528;2023-09-18T05:28:00;17.10;80.90
40622;DHT22;26324;52.040;11.528;2023-09-18T05:30:33;17.10;80.90
40622;DHT22;26324;52.040;11.528;2023-09-18T05:33:08;17.10;80.80
40622;DHT22;26324;52.040;11.528;2023-09-18T05:35:43;17.10;81.00
40622;DHT22;26324;52.040;11.528;2023-09-18T05:38:11;17.30;80.60
40622;DHT22;26324;52.040;11.528;2023-09-18T05:40:41;17.40;80.00
40622;DHT22;26324;52.040;11.528;2023-09-18T05:43:08;17.50;79.80
40622;DHT22;26324;52.040;11.528;2023-09-18T05:45:37;17.50;80.10
40622;DHT22;26324;52.040;11.528;2023-09-18T05:48:05;17.50;80.00
40622;DHT22;26324;52.040;11.528;2023-09-18T05:50:34;17.60;79.80
40622;DHT22;26324;52.040;11.528;2023-09-18T05:53:05;17.70;79.60
40622;DHT22;26324;52.040;11.528;2023-09-18T05:55:34;17.80;79.50
40622;DHT22;26324;52.040;11.528;2023-09-18T05:58:02;17.90;79.10
40622;DHT22;26324;52.040;11.528;2023-09-18T06:00:32;18.00;79.10
40622;DHT22;26324;52.040;11.528;2023-09-18T06:03:00;18.00;79.10
40622;DHT22;26324;52.040;11.528;2023-09-18T06:05:29;18.00;79.00
40622;DHT22;26324;52.040;11.528;2023-09-18T06:07:59;18.10;79.10
40622;DHT22;26324;52.040;11.528;2023-09-18T06:10:28;18.20;78.70
40622;DHT22;26324;52.040;11.528;2023-09-18T06:12:55;18.20;78.30
40622;DHT22;26324;52.040;11.528;2023-09-18T06:15:23;18.30;78.60
40622;DHT22;26324;52.040;11.528;2023-09-18T06:17:50;18.50;78.30
40622;DHT22;26324;52.040;11.528;2023-09-18T06:20:18;18.50;78.00
40622;DHT22;26324;52.040;11.528;2023-09-18T06:22:45;18.70;77.50
40622;DHT22;26324;52.040;11.528;2023-09-18T06:25:13;18.80;77.20
40622;DHT22;26324;52.040;11.528;2023-09-18T06:27:42;18.90;77.00
40622;DHT22;26324;52.040;11.528;2023-09-18T06:30:10;19.00;77.00
40622;DHT22;26324;52.040;11.528;2023-09-18T06:32:37;19.10;76.50
40622;DHT22;26324;52.040;11.528;2023-09-18T06:35:05;19.10;76.60
40622;DHT22;26324;52.040;11.528;2023-09-18T06:37:33;19.30;76.00
40622;DHT22;26324;52.040;11.528;2023-09-18T06:40:01;19.50;75.80
40622;DHT22;26324;52.040;11.528;2023-09-18T06:42:32;19.60;75.40
40622;DHT22;26324;52.040;11.528;2023-09-18T06:45:01;19.70;74.50
40622;DHT22;26324;52.040;11.528;2023-09-18T06:47:29;19.90;74.50
40622;DHT22;26324;52.040;11.528;2023-09-18T06:49:56;20.10;74.10
40622;DHT22;26324;52.040;11.528;2023-09-18T06:52:25;20.40;73.40
40622;DHT22;26324;52.040;11.528;2023-09-18T06:54:54;20.60;72.30
40622;DHT22;26324;52.040;11.528;2023-09-18T06:57:21;20.90;71.20
40622;DHT22;26324;52.040;11.528;2023-09-18T06:59:48;21.00;70.20
40622;DHT22;26324;52.040;11.528;2023-09-18T07:02:16;21.10;70.20
40622;DHT22;26324;52.040;11.528;2023-09-18T07:04:44;21.20;69.80
40622;DHT22;26324;52.040;11.528;2023-09-18T07:07:15;21.30;69.00
40622;DHT22;26324;52.040;11.528;2023-09-18T07:09:43;21.40;69.50
40622;DHT22;26324;52.040;11.528;2023-09-18T07:12:13;21.30;68.70
40622;DHT22;26324;52.040;11.528;2023-09-18T07:14:40;21.40;69.50
40622;DHT22;26324;52.040;11.528;2023-09-18T07:17:08;21.50;68.00
40622;DHT22;26324;52.040;11.528;2023-09-18T07:19:35;21.60;68.50
40622;DHT22;26324;52.040;11.528;2023-09-18T07:22:03;21.80;68.10
40622;DHT22;26324;52.040;11.528;2023-09-18T07:24:31;22.10;67.90
40622;DHT22;26324;52.040;11.528;2023-09-18T07:26:58;22.50;68.00
40622;DHT22;26324;52.040;11.528;2023-09-18T07:29:27;22.70;67.10
40622;DHT22;26324;52.040;11.528;2023-09-18T07:31:54;23.00;66.00
40622;DHT22;26324;52.040;11.528;2023-09-18T07:34:22;23.00;65.80
40622;DHT22;26324;52.040;11.528;2023-09-18T07:36:49;22.90;65.50
40622;DHT22;26324;52.040;11.528;2023-09-18T07:39:21;22.60;65.40
40622;DHT22;26324;52.040;11.528;2023-09-18T07:41:48;22.60;66.30
40622;DHT22;26324;52.040;11.528;2023-09-18T07:44:20;22.50;64.80
40622;DHT22;26324;52.040;11.528;2023-09-18T07:46:48;22.40;65.50
40622;DHT22;26324;52.040;11.528;2023-09-18T07:49:17;22.30;65.80
40622;DHT22;26324;52.040;11.528;2023-09-18T07:51:45;22.10;65.70
40622;DHT22;26324;52.040;11.528;2023-09-18T07:54:14;22.10;66.30
40622;DHT22;26324;52.040;11.528;2023-09-18T07:56:43;22.10;66.20
40622;DHT22;26324;52.040;11.528;2023-09-18T07:59:10;22.10;66.10
40622;DHT22;26324;52.040;11.528;2023-09-18T08:01:38;22.00;66.80
40622;DHT22;26324;52.040;11.528;2023-09-18T08:04:05;22.00;66.70
40622;DHT22;26324;52.040;11.528;2023-09-18T08:06:33;22.00;66.60
40622;DHT22;26324;52.040;11.528;2023-09-18T08:09:01;22.00;66.50
40622;DHT22;26324;52.040;11.528;2023-09-18T08:11:28;22.10;67.40
40622;DHT22;26324;52.040;11.528;2023-09-18T08:13:56;22.30;66.50
40622;DHT22;26324;52.040;11.528;2023-09-18T08:16:23;22.50;66.30
40622;DHT22;26324;52.040;11.528;2023-09-18T08:18:51;22.60;64.80
40622;DHT22;26324;52.040;11.528;2023-09-18T08:21:21;22.60;65.30
40622;DHT22;26324;52.040;11.528;2023-09-18T08:23:50;22.70;64.60
40622;DHT22;26324;52.040;11.528;2023-09-18T08:26:17;22.70;64.60
40622;DHT22;26324;52.040;11.528;2023-09-18T08:28:45;22.80;64.90
40622;DHT22;26324;52.040;11.528;2023-09-18T08:31:12;22.70;64.20
40622;DHT22;26324;52.040;11.528;2023-09-18T08:33:42;22.70;64.70
40622;DHT22;26324;52.040;11.528;2023-09-18T08:36:09;22.70;63.60
40622;DHT22;26324;52.040;11.528;2023-09-18T08:38:37;22.70;63.50
40622;DHT22;26324;52.040;11.528;2023-09-18T08:41:04;22.70;64.00
40622;DHT22;26324;52.040;11.528;2023-09-18T08:43:33;22.70;64.20
40622;DHT22;26324;52.040;11.528;2023-09-18T08:46:01;22.70;63.40
40622;DHT22;26324;52.040;11.528;2023-09-18T08:48:30;22.70;64.10
40622;DHT22;26324;52.040;11.528;2023-09-18T08:51:03;22.70;64.50
40622;DHT22;26324;52.040;11.528;2023-09-18T08:53:33;22.70;64.90
40622;DHT22;26324;52.040;11.528;2023-09-18T08:56:04;22.60;64.80
40622;DHT22;26324;52.040;11.528;2023-09-18T08:58:33;22.70;65.50
40622;DHT22;26324;52.040;11.528;2023-09-18T09:01:03;22.70;65.00
40622;DHT22;26324;52.040;11.528;2023-09-18T09:03:33;22.70;64.70
40622;DHT22;26324;52.040;11.528;2023-09-18T09:06:02;22.80;65.10
40622;DHT22;26324;52.040;11.528;2023-09-18T09:08:29;22.90;63.80
40622;DHT22;26324;52.040;11.528;2023-09-18T09:10:57;22.80;63.80
40622;DHT22;26324;52.040;11.528;2023-09-18T09:13:25;22.90;62.90
40622;DHT22;26324;52.040;11.528;2023-09-18T09:16:12;22.80;63.10
40622;DHT22;26324;52.040;11.528;2023-09-18T09:18:48;22.80;64.20
40622;DHT22;26324;52.040;11.528;2023-09-18T09:21:16;22.90;62.70
40622;DHT22;26324;52.040;11.528;2023-09-18T09:23:54;23.00;62.10
40622;DHT22;26324;52.040;11.528;2023-09-18T09:26:23;23.00;62.20
40622;DHT22;26324;52.040;11.528;2023-09-18T09:28:51;23.10;62.50
40622;DHT22;26324;52.040;11.528;2023-09-18T09:31:28;23.00;63.40
40622;DHT22;26324;52.040;11.528;2023-09-18T09:33:56;22.90;63.80
40622;DHT22;26324;52.040;11.528;2023-09-18T09:36:24;22.90;64.20
40622;DHT22;26324;52.040;11.528;2023-09-18T09:38:56;23.00;63.50
40622;DHT22;26324;52.040;11.528;2023-09-18T09:41:27;23.00;63.60
40622;DHT22;26324;52.040;11.528;2023-09-18T09:43:57;23.00;64.20
40622;DHT22;26324;52.040;11.528;2023-09-18T09:46:25;22.80;64.30
40622;DHT22;26324;52.040;11.528;2023-09-18T09:49:04;22.70;64.30
40622;DHT22;26324;52.040;11.528;2023-09-18T09:51:33;22.70;64.30
40622;DHT22;26324;52.040;11.528;2023-09-18T09:54:01;22.60;65.10
40622;DHT22;26324;52.040;11.528;2023-09-18T09:56:46;22.60;65.20
40622;DHT22;26324;52.040;11.528;2023-09-18T09:59:15;22.60;65.00
40622;DHT22;26324;52.040;11.528;2023-09-18T10:01:47;22.70;64.90
40622;DHT22;26324;52.040;11.528;2023-09-18T10:04:18;22.60;65.80
40622;DHT22;26324;52.040;11.528;2023-09-18T10:06:52;22.50;66.30
40622;DHT22;26324;52.040;11.528;2023-09-18T10:09:25;22.50;66.60
40622;DHT22;26324;52.040;11.528;2023-09-18T10:11:54;22.50;66.70
40622;DHT22;26324;52.040;11.528;2023-09-18T10:14:33;22.50;66.80
40622;DHT22;26324;52.040;11.528;2023-09-18T10:17:25;22.60;66.70
40622;DHT22;26324;52.040;11.528;2023-09-18T10:20:12;22.80;66.90
40622;DHT22;26324;52.040;11.528;2023-09-18T10:22:53;22.90;66.70
40622;DHT22;26324;52.040;11.528;2023-09-18T10:25:23;23.10;66.50
40622;DHT22;26324;52.040;11.528;2023-09-18T10:27:52;23.30;66.10
40622;DHT22;26324;52.040;11.528;2023-09-18T10:30:25;23.50;65.20
40622;DHT22;26324;52.040;11.528;2023-09-18T10:32:54;23.80;64.90
40622;DHT22;26324;52.040;11.528;2023-09-18T10:35:23;24.10;64.40
40622;DHT22;26324;52.040;11.528;2023-09-18T10:37:54;24.20;63.90
40622;DHT22;26324;52.040;11.528;2023-09-18T10:40:22;24.50;62.50
40622;DHT22;26324;52.040;11.528;2023-09-18T10:42:52;24.80;61.90
40622;DHT22;26324;52.040;11.528;2023-09-18T10:45:21;25.00;62.50
40622;DHT22;26324;52.040;11.528;2023-09-18T10:47:49;25.10;60.80
40622;DHT22;26324;52.040;11.528;2023-09-18T10:50:25;25.20;59.50
40622;DHT22;26324;52.040;11.528;2023-09-18T10:52:53;25.40;60.70
40622;DHT22;26324;52.040;11.528;2023-09-18T10:55:21;25.50;59.30
40622;DHT22;26324;52.040;11.528;2023-09-18T10:57:52;25.50;56.30
40622;DHT22;26324;52.040;11.528;2023-09-18T11:00:21;25.60;55.90
40622;DHT22;26324;52.040;11.528;2023-09-18T11:02:52;25.80;56.40
40622;DHT22;26324;52.040;11.528;2023-09-18T11:05:29;26.00;55.90
40622;DHT22;26324;52.040;11.528;2023-09-18T11:08:26;26.00;56.30
40622;DHT22;26324;52.040;11.528;2023-09-18T11:13:35;26.10;55.40
40622;DHT22;26324;52.040;11.528;2023-09-18T11:19:08;26.40;53.50
40622;DHT22;26324;52.040;11.528;2023-09-18T11:21:36;26.50;54.60
40622;DHT22;26324;52.040;11.528;2023-09-18T11:24:21;26.60;54.30
40622;DHT22;26324;52.040;11.528;2023-09-18T11:26:51;26.60;52.50
40622;DHT22;26324;52.040;11.528;2023-09-18T11:29:23;26.40;52.30
40622;DHT22;26324;52.040;11.528;2023-09-18T11:31:53;26.30;53.20
40622;DHT22;26324;52.040;11.528;2023-09-18T11:34:26;26.40;53.20
40622;DHT22;26324;52.040;11.528;2023-09-18T11:36:55;26.40;53.00
40622;DHT22;26324;52.040;11.528;2023-09-18T11:42:18;26.40;52.70
40622;DHT22;26324;52.040;11.528;2023-09-18T11:44:46;26.30;53.10
40622;DHT22;26324;52.040;11.528;2023-09-18T11:47:19;26.30;52.80
40622;DHT22;26324;52.040;11.528;2023-09-18T11:49:49;26.20;53.40
40622;DHT22;26324;52.040;11.528;2023-09-18T11:52:18;26.20;53.30
40622;DHT22;26324;52.040;11.528;2023-09-18T11:54:47;26.10;53.30
40622;DHT22;26324;52.040;11.528;2023-09-18T11:57:17;26.20;53.60
40622;DHT22;26324;52.040;11.528;2023-09-18T11:59:45;26.30;53.90
40622;DHT22;26324;52.040;11.528;2023-09-18T12:02:35;26.30;54.50
40622;DHT22;26324;52.040;11.528;2023-09-18T12:05:14;26.40;53.90
40622;DHT22;26324;52.040;11.528;2023-09-18T12:07:44;26.40;54.10
40622;DHT22;26324;52.040;11.528;2023-09-18T12:10:15;26.50;54.60
40622;DHT22;26324;52.040;11.528;2023-09-18T12:12:44;26.50;53.90
40622;DHT22;26324;52.040;11.528;2023-09-18T12:15:13;26.30;55.10
40622;DHT22;26324;52.040;11.528;2023-09-18T12:17:42;26.30;54.40
40622;DHT22;26324;52.040;11.528;2023-09-18T12:20:17;26.30;54.50
40622;DHT22;26324;52.040;11.528;2023-09-18T12:22:49;26.30;54.90
40622;DHT22;26324;52.040;11.528;2023-09-18T12:25:18;26.20;54.90
40622;DHT22;26324;52.040;11.528;2023-09-18T12:27:46;26.10;54.30
40622;DHT22;26324;52.040;11.528;2023-09-18T12:30:13;26.10;54.70
40622;DHT22;26324;52.040;11.528;2023-09-18T12:32:52;26.10;54.90
40622;DHT22;26324;52.040;11.528;2023-09-18T12:35:21;26.10;54.90
40622;DHT22;26324;52.040;11.528;2023-09-18T12:37:48;26.10;54.40
40622;DHT22;26324;52.040;11.528;2023-09-18T12:40:23;26.10;54.60
40622;DHT22;26324;52.040;11.528;2023-09-18T12:42:51;26.30;55.00
40622;DHT22;26324;52.040;11.528;2023-09-18T12:45:22;26.30;54.80
40622;DHT22;26324;52.040;11.528;2023-09-18T12:47:50;26.30;54.70
40622;DHT22;26324;52.040;11.528;2023-09-18T12:50:18;26.30;54.60
40622;DHT22;26324;52.040;11.528;2023-09-18T12:52:46;26.20;55.10
40622;DHT22;26324;52.040;11.528;2023-09-18T12:55:24;26.10;54.80
40622;DHT22;26324;52.040;11.528;2023-09-18T12:57:53;26.10;54.60
40622;DHT22;26324;52.040;11.528;2023-09-18T13:00:21;26.10;55.20
40622;DHT22;26324;52.040;11.528;2023-09-18T13:02:54;26.30;55.20
40622;DHT22;26324;52.040;11.528;2023-09-18T13:05:25;26.40;55.20
40622;DHT22;26324;52.040;11.528;2023-09-18T13:07:54;26.40;54.70
40622;DHT22;26324;52.040;11.528;2023-09-18T13:10:22;26.40;55.30
40622;DHT22;26324;52.040;11.528;2023-09-18T13:12:55;26.40;55.50
40622;DHT22;26324;52.040;11.528;2023-09-18T13:15:30;26.40;54.20
40622;DHT22;26324;52.040;11.528;2023-09-18T13:18:00;26.30;54.30
40622;DHT22;26324;52.040;11.528;2023-09-18T13:20:29;26.30;54.80
40622;DHT22;26324;52.040;11.528;2023-09-18T13:22:59;26.20;55.60
40622;DHT22;26324;52.040;11.528;2023-09-18T13:25:36;26.10;56.20
40622;DHT22;26324;52.040;11.528;2023-09-18T13:28:06;25.90;55.70
40622;DHT22;26324;52.040;11.528;2023-09-18T13:30:36;25.70;56.10
40622;DHT22;26324;52.040;11.528;2023-09-18T13:33:08;25.70;56.50
40622;DHT22;26324;52.040;11.528;2023-09-18T13:35:39;25.60;57.10
40622;DHT22;26324;52.040;11.528;2023-09-18T13:38:07;25.50;57.20
40622;DHT22;26324;52.040;11.528;2023-09-18T13:40:35;25.40;56.90
40622;DHT22;26324;52.040;11.528;2023-09-18T13:43:05;25.40;57.40
40622;DHT22;26324;52.040;11.528;2023-09-18T13:45:33;25.20;58.70
40622;DHT22;26324;52.040;11.528;2023-09-18T13:48:03;25.10;60.10
40622;DHT22;26324;52.040;11.528;2023-09-18T13:50:32;24.80;62.50
40622;DHT22;26324;52.040;11.528;2023-09-18T13:53:01;24.60;63.50
40622;DHT22;26324;52.040;11.528;2023-09-18T13:55:31;24.50;64.10
40622;DHT22;26324;52.040;11.528;2023-09-18T13:57:58;24.40;64.10
40622;DHT22;26324;52.040;11.528;2023-09-18T14:00:27;24.30;64.60
40622;DHT22;26324;52.040;11.528;2023-09-18T14:02:54;24.20;65.00
40622;DHT22;26324;52.040;11.528;2023-09-18T14:05:22;24.30;65.50
40622;DHT22;26324;52.040;11.528;2023-09-18T14:07:51;24.20;65.30
40622;DHT22;26324;52.040;11.528;2023-09-18T14:10:18;24.30;65.10
40622;DHT22;26324;52.040;11.528;2023-09-18T14:12:48;24.40;65.30
40622;DHT22;26324;52.040;11.528;2023-09-18T14:15:17;24.50;64.90
40622;DHT22;26324;52.040;11.528;2023-09-18T14:17:45;24.40;65.00
40622;DHT22;26324;52.040;11.528;2023-09-18T14:20:13;24.50;65.30
40622;DHT22;26324;52.040;11.528;2023-09-18T14:22:42;24.50;65.40
40622;DHT22;26324;52.040;11.528;2023-09-18T14:25:09;24.50;66.20
40622;DHT22;26324;52.040;11.528;2023-09-18T14:27:39;24.60;66.10
40622;DHT22;26324;52.040;11.528;2023-09-18T14:30:07;24.60;65.20
40622;DHT22;26324;52.040;11.528;2023-09-18T14:32:35;24.60;65.70
40622;DHT22;26324;52.040;11.528;2023-09-18T14:35:05;24.60;64.30
40622;DHT22;26324;52.040;11.528;2023-09-18T14:37:36;24.90;63.30
40622;DHT22;26324;52.040;11.528;2023-09-18T14:40:04;25.00;63.90
40622;DHT22;26324;52.040;11.528;2023-09-18T14:42:32;25.20;61.50
40622;DHT22;26324;52.040;11.528;2023-09-18T14:45:00;25.40;61.10
40622;DHT22;26324;52.040;11.528;2023-09-18T14:47:29;25.30;61.40
40622;DHT22;26324;52.040;11.528;2023-09-18T14:49:56;25.30;60.60
40622;DHT22;26324;52.040;11.528;2023-09-18T14:52:26;25.00;61.30
40622;DHT22;26324;52.040;11.528;2023-09-18T14:54:53;24.80;61.70
40622;DHT22;26324;52.040;11.528;2023-09-18T14:57:21;24.60;61.90
40622;DHT22;26324;52.040;11.528;2023-09-18T14:59:48;24.50;63.00
40622;DHT22;26324;52.040;11.528;2023-09-18T15:02:16;24.40;62.70
40622;DHT22;26324;52.040;11.528;2023-09-18T15:04:45;24.30;62.90
40622;DHT22;26324;52.040;11.528;2023-09-18T15:07:13;24.30;63.10
40622;DHT22;26324;52.040;11.528;2023-09-18T15:09:41;24.20;62.40
40622;DHT22;26324;52.040;11.528;2023-09-18T15:12:08;24.20;62.70
40622;DHT22;26324;52.040;11.528;2023-09-18T15:14:38;24.30;63.00
40622;DHT22;26324;52.040;11.528;2023-09-18T15:17:06;24.20;62.80
40622;DHT22;26324;52.040;11.528;2023-09-18T15:19:35;24.30;63.00
40622;DHT22;26324;52.040;11.528;2023-09-18T15:22:02;24.30;63.10
40622;DHT22;26324;52.040;11.528;2023-09-18T15:24:30;24.50;62.50
40622;DHT22;26324;52.040;11.528;2023-09-18T15:26:58;24.60;62.80
40622;DHT22;26324;52.040;11.528;2023-09-18T15:29:25;24.60;62.80
40622;DHT22;26324;52.040;11.528;2023-09-18T15:32:01;24.60;63.80
40622;DHT22;26324;52.040;11.528;2023-09-18T15:34:32;24.60;65.10
40622;DHT22;26324;52.040;11.528;2023-09-18T15:37:01;24.40;64.90